Time;durP1;ratioP1;P1;durP2;ratioP2;P2;SDS_P1;SDS_P2;PMS_P1;PMS_P2;Temp;Humidity;BMP_temperature;BMP_pressure;BME280_temperature;BME280_humidity;BME280_pressure;Samples;Min_cycle;Max_cycle;Signal;HPM_P1;HPM_P2
2021/05/28 00:02:08;;;;;;;15.98;5.15;;;9.50;99.90;;;;;;5071924;28;20380;-72
2021/05/28 00:04:34;;;;;;;14.05;5.20;;;9.60;99.90;;;;;;5061403;28;20039;-74
2021/05/28 00:06:59;;;;;;;10.32;5.10;;;9.60;99.90;;;;;;5069698;28;20044;-73
2021/05/28 00:09:25;;;;;;;13.93;6.05;;;9.50;99.90;;;;;;5072351;28;20028;-72
2021/05/28 00:11:51;;;;;;;14.02;6.47;;;9.50;99.90;;;;;;5071860;28;20051;-74
2021/05/28 00:14:16;;;;;;;7.80;4.60;;;9.50;99.90;;;;;;5072950;28;20380;-72
2021/05/28 00:16:42;;;;;;;11.05;4.75;;;9.50;99.90;;;;;;5072558;28;20439;-72
2021/05/28 00:19:08;;;;;;;8.63;4.82;;;9.50;99.90;;;;;;5073156;28;20024;-73
2021/05/28 00:21:34;;;;;;;13.02;5.55;;;9.50;99.90;;;;;;5062753;28;20484;-73
2021/05/28 00:24:00;;;;;;;8.43;5.10;;;9.50;99.90;;;;;;5072942;28;20145;-72
2021/05/28 00:26:25;;;;;;;11.63;4.75;;;9.60;99.90;;;;;;5071483;28;20021;-73
2021/05/28 00:28:51;;;;;;;11.90;5.65;;;9.50;99.90;;;;;;5068865;28;20049;-72
2021/05/28 00:31:18;;;;;;;12.45;5.30;;;9.50;99.90;;;;;;5071846;28;20028;-73
2021/05/28 00:33:43;;;;;;;8.68;5.05;;;9.50;99.90;;;;;;5071367;28;20017;-74
2021/05/28 00:36:09;;;;;;;16.70;4.97;;;9.50;99.90;;;;;;5069962;28;20061;-73
2021/05/28 00:38:35;;;;;;;10.25;4.95;;;9.50;99.90;;;;;;5066495;28;20488;-74
2021/05/28 00:41:01;;;;;;;10.15;5.15;;;9.50;99.90;;;;;;5072650;28;20031;-73
2021/05/28 00:43:27;;;;;;;11.40;5.15;;;9.50;99.90;;;;;;5075189;28;20214;-73
2021/05/28 00:45:53;;;;;;;9.18;5.43;;;9.50;99.90;;;;;;5079346;28;20115;-73
2021/05/28 00:48:18;;;;;;;9.27;5.03;;;9.40;99.90;;;;;;5075470;28;20432;-73
2021/05/28 00:50:44;;;;;;;10.60;5.18;;;9.40;99.90;;;;;;5072947;28;20020;-74
2021/05/28 00:53:10;;;;;;;9.38;5.10;;;9.40;99.90;;;;;;5074353;28;20020;-74
2021/05/28 00:55:36;;;;;;;12.35;4.57;;;9.40;99.90;;;;;;5076314;28;20507;-74
2021/05/28 00:58:02;;;;;;;11.93;5.45;;;9.40;99.90;;;;;;5075135;28;20472;-74
2021/05/28 01:00:28;;;;;;;12.55;5.10;;;9.30;99.90;;;;;;5076190;28;20139;-73
2021/05/28 01:02:55;;;;;;;9.63;5.00;;;9.30;99.90;;;;;;5072624;28;20028;-73
2021/05/28 01:05:21;;;;;;;8.77;4.63;;;9.30;99.90;;;;;;5075910;28;20024;-74
2021/05/28 01:07:47;;;;;;;9.45;5.07;;;9.30;99.90;;;;;;5075845;28;20441;-73
2021/05/28 01:10:14;;;;;;;14.80;5.60;;;9.30;99.90;;;;;;5075708;28;21344;-73
2021/05/28 01:12:40;;;;;;;10.25;5.50;;;9.30;99.90;;;;;;5074518;28;20031;-73
2021/05/28 01:15:07;;;;;;;18.63;7.00;;;9.30;99.90;;;;;;5073652;28;20026;-73
2021/05/28 01:17:33;;;;;;;11.73;5.60;;;9.20;99.90;;;;;;5075481;28;20067;-73
2021/05/28 01:19:59;;;;;;;12.10;6.20;;;9.10;99.90;;;;;;5071179;28;20032;-74
2021/05/28 01:22:25;;;;;;;18.08;5.57;;;9.10;99.90;;;;;;5074913;28;20554;-73
2021/05/28 01:24:51;;;;;;;10.55;5.20;;;9.20;99.90;;;;;;5073358;28;20089;-73
2021/05/28 01:27:18;;;;;;;11.68;5.43;;;9.20;99.90;;;;;;5070974;28;20032;-74
2021/05/28 01:29:45;;;;;;;12.63;5.30;;;9.20;99.90;;;;;;5058491;28;20135;-73
2021/05/28 01:32:11;;;;;;;7.95;5.30;;;9.20;99.90;;;;;;5070841;28;20032;-73
2021/05/28 01:34:36;;;;;;;9.18;4.60;;;9.10;99.90;;;;;;5076225;28;20031;-73
2021/05/28 01:37:02;;;;;;;7.65;4.53;;;9.10;99.90;;;;;;5077100;28;20063;-73
2021/05/28 01:39:28;;;;;;;8.52;5.30;;;9.00;99.90;;;;;;5077340;28;20078;-74
2021/05/28 01:41:54;;;;;;;11.07;5.18;;;9.00;99.90;;;;;;5091964;28;20028;-74
2021/05/28 01:44:19;;;;;;;11.82;5.43;;;9.00;99.90;;;;;;5093762;28;20033;-74
2021/05/28 01:46:48;;;;;;;7.22;5.10;;;9.00;99.90;;;;;;5094785;28;20028;-74
2021/05/28 01:49:14;;;;;;;10.55;5.15;;;8.90;99.90;;;;;;5095867;28;20070;-73
2021/05/28 01:51:51;;;;;;;10.15;5.55;;;8.90;99.90;;;;;;5096485;28;20016;-77
2021/05/28 01:54:18;;;;;;;8.88;5.20;;;8.80;99.90;;;;;;5091266;28;20021;-74
2021/05/28 01:56:46;;;;;;;11.40;5.80;;;8.80;99.90;;;;;;5082220;28;20033;-74
2021/05/28 01:59:25;;;;;;;;;;;8.80;99.90;;;;;;5075897;28;20027;-73
2021/05/28 02:01:52;;;;;;;10.60;5.22;;;8.80;99.90;;;;;;5079833;28;19994;-74
2021/05/28 02:04:18;;;;;;;6.88;5.03;;;8.80;99.90;;;;;;5076965;28;20021;-73
2021/05/28 02:06:44;;;;;;;6.93;4.97;;;8.70;99.90;;;;;;5076030;28;20038;-74
2021/05/28 02:09:10;;;;;;;11.38;4.78;;;8.70;99.90;;;;;;5077078;28;20029;-74
2021/05/28 02:11:36;;;;;;;14.13;5.70;;;8.60;99.90;;;;;;5074953;28;20027;-75
2021/05/28 02:14:03;;;;;;;8.90;5.78;;;8.70;99.90;;;;;;5075650;28;20112;-73
2021/05/28 02:16:29;;;;;;;10.25;5.47;;;8.60;99.90;;;;;;5074640;28;20028;-73
2021/05/28 02:18:56;;;;;;;12.25;5.63;;;8.60;99.90;;;;;;5075497;28;20404;-73
2021/05/28 02:21:22;;;;;;;7.90;5.05;;;8.50;99.90;;;;;;5063100;28;20033;-73
2021/05/28 02:23:47;;;;;;;10.95;5.68;;;8.50;99.90;;;;;;5072554;28;20031;-74
2021/05/28 02:26:13;;;;;;;9.20;5.38;;;8.50;99.90;;;;;;5067591;28;20028;-73
2021/05/28 02:28:38;;;;;;;7.50;4.85;;;8.50;99.90;;;;;;5074185;28;20033;-74
2021/05/28 02:31:04;;;;;;;11.88;6.40;;;8.50;99.90;;;;;;5072905;28;20025;-74
2021/05/28 02:33:30;;;;;;;10.95;6.05;;;8.50;99.90;;;;;;5073194;28;20017;-74
2021/05/28 02:35:55;;;;;;;13.02;6.55;;;8.40;99.90;;;;;;5073012;28;20029;-74
2021/05/28 02:38:21;;;;;;;8.98;6.03;;;8.40;99.90;;;;;;5074863;28;20028;-74
2021/05/28 02:40:47;;;;;;;13.57;5.70;;;8.40;99.90;;;;;;5072978;28;20476;-74
2021/05/28 02:43:12;;;;;;;10.43;5.90;;;8.40;99.90;;;;;;5073156;28;20128;-74
2021/05/28 02:45:38;;;;;;;10.77;6.03;;;8.50;99.90;;;;;;5068889;28;20056;-74
2021/05/28 02:48:04;;;;;;;7.72;5.80;;;8.40;99.90;;;;;;5073364;28;20024;-74
2021/05/28 02:50:32;;;;;;;12.70;6.20;;;8.40;99.90;;;;;;5072217;28;20017;-74
2021/05/28 02:53:00;;;;;;;8.93;5.75;;;8.40;99.90;;;;;;5073066;28;20032;-74
2021/05/28 02:55:27;;;;;;;12.43;5.95;;;8.40;99.90;;;;;;5074515;28;20025;-74
2021/05/28 02:57:53;;;;;;;10.15;6.60;;;8.40;99.90;;;;;;5073368;28;20027;-74
2021/05/28 03:00:21;;;;;;;9.70;5.85;;;8.40;99.90;;;;;;5065570;28;20021;-73
2021/05/28 03:02:46;;;;;;;14.63;6.25;;;8.30;99.90;;;;;;5073310;28;20035;-74
2021/05/28 03:05:13;;;;;;;10.10;6.30;;;8.30;99.90;;;;;;5072318;28;20016;-74
2021/05/28 03:07:38;;;;;;;10.93;5.88;;;8.20;99.90;;;;;;5073201;28;20033;-73
2021/05/28 03:10:05;;;;;;;10.80;6.22;;;8.20;99.90;;;;;;5073114;28;20120;-73
2021/05/28 03:12:30;;;;;;;14.43;7.25;;;8.20;99.90;;;;;;5070913;28;20027;-73
2021/05/28 03:14:56;;;;;;;12.05;5.95;;;8.10;99.90;;;;;;5062188;28;20493;-73
2021/05/28 03:17:22;;;;;;;10.52;6.03;;;8.10;99.90;;;;;;5072571;28;20048;-74
2021/05/28 03:19:49;;;;;;;12.40;6.53;;;8.10;99.90;;;;;;5073457;28;20055;-74
2021/05/28 03:22:32;;;;;;;14.30;6.97;;;8.10;99.90;;;;;;5073012;28;20021;-74
2021/05/28 03:25:03;;;;;;;13.10;6.20;;;8.10;99.90;;;;;;5072469;28;20530;-74
2021/05/28 03:27:28;;;;;;;11.93;6.28;;;8.10;99.90;;;;;;5070590;28;20020;-73
2021/05/28 03:29:54;;;;;;;9.18;5.97;;;8.10;99.90;;;;;;5071421;28;20379;-73
2021/05/28 03:32:20;;;;;;;11.05;6.43;;;8.10;99.90;;;;;;5073304;28;20472;-73
2021/05/28 03:34:45;;;;;;;11.57;6.07;;;8.10;99.90;;;;;;5071894;28;20100;-74
2021/05/28 03:37:11;;;;;;;11.43;7.18;;;8.10;99.90;;;;;;5069618;28;20028;-74
2021/05/28 03:39:37;;;;;;;8.98;5.88;;;8.10;99.90;;;;;;5071426;28;20430;-73
2021/05/28 03:42:03;;;;;;;17.35;6.30;;;8.10;99.90;;;;;;5059228;28;20021;-74
2021/05/28 03:44:29;;;;;;;10.85;6.75;;;8.10;99.90;;;;;;5072561;28;20024;-74
2021/05/28 03:46:55;;;;;;;11.07;6.82;;;8.10;99.90;;;;;;5071630;28;20431;-74
2021/05/28 03:49:21;;;;;;;12.73;7.10;;;8.10;99.90;;;;;;5071897;28;20055;-74
2021/05/28 03:51:46;;;;;;;11.23;5.97;;;8.10;99.90;;;;;;5073595;28;20039;-73
2021/05/28 03:54:12;;;;;;;13.48;6.28;;;8.10;99.90;;;;;;5073235;28;20021;-73
2021/05/28 03:56:38;;;;;;;13.68;7.30;;;8.10;99.90;;;;;;5073312;28;20055;-73
2021/05/28 03:59:04;;;;;;;12.25;6.70;;;8.10;99.90;;;;;;5072887;28;20436;-73
2021/05/28 04:01:29;;;;;;;16.38;6.97;;;8.10;99.90;;;;;;5071440;28;20404;-73
2021/05/28 04:03:55;;;;;;;12.50;6.68;;;8.10;99.90;;;;;;5058533;28;20461;-73
2021/05/28 04:06:21;;;;;;;12.77;6.20;;;8.10;99.90;;;;;;5072547;28;20031;-72
2021/05/28 04:08:46;;;;;;;19.92;7.35;;;8.20;99.90;;;;;;5067203;28;20071;-73
2021/05/28 04:11:12;;;;;;;13.77;6.93;;;8.20;99.90;;;;;;5067978;28;20024;-73
2021/05/28 04:13:37;;;;;;;11.10;6.85;;;8.20;99.90;;;;;;5079405;28;20028;-73
2021/05/28 04:16:04;;;;;;;11.00;6.65;;;8.20;99.90;;;;;;5078715;28;20104;-73
2021/05/28 04:18:29;;;;;;;12.70;7.25;;;8.20;99.90;;;;;;5079382;28;20045;-73
2021/05/28 04:20:55;;;;;;;23.77;8.30;;;8.20;99.90;;;;;;5093366;28;20102;-73
2021/05/28 04:23:21;;;;;;;13.88;7.30;;;8.30;99.90;;;;;;5090160;28;20530;-73
2021/05/28 04:25:48;;;;;;;11.43;6.75;;;8.30;99.90;;;;;;5090888;28;20035;-73
2021/05/28 04:28:13;;;;;;;13.65;7.15;;;8.30;99.90;;;;;;5094383;28;20036;-73
2021/05/28 04:30:40;;;;;;;16.65;7.50;;;8.40;99.90;;;;;;5085067;28;20032;-73
2021/05/28 04:33:06;;;;;;;10.90;6.57;;;8.40;99.90;;;;;;5093616;28;20013;-73
2021/05/28 04:35:31;;;;;;;14.07;7.43;;;8.40;99.90;;;;;;5101908;28;20089;-72
2021/05/28 04:37:57;;;;;;;11.80;7.28;;;8.50;99.90;;;;;;5103140;28;20020;-73
2021/05/28 04:40:23;;;;;;;12.95;6.57;;;8.50;99.90;;;;;;5101776;28;20042;-72
2021/05/28 04:42:48;;;;;;;12.93;7.45;;;8.50;99.90;;;;;;5092874;28;20033;-73
2021/05/28 04:45:15;;;;;;;14.48;7.97;;;8.60;99.90;;;;;;5083990;28;20028;-74
2021/05/28 04:47:40;;;;;;;21.73;7.78;;;8.60;99.90;;;;;;5085179;28;20059;-74
2021/05/28 04:50:07;;;;;;;15.90;7.50;;;8.70;99.90;;;;;;5082023;28;20048;-73
2021/05/28 04:52:32;;;;;;;11.98;7.80;;;8.80;99.90;;;;;;5078778;28;20029;-74
2021/05/28 04:54:58;;;;;;;12.73;7.65;;;8.80;99.90;;;;;;5081047;28;20029;-73
2021/05/28 04:57:24;;;;;;;10.25;6.80;;;8.90;99.90;;;;;;5079073;28;20016;-74
2021/05/28 04:59:49;;;;;;;17.23;8.05;;;9.00;99.90;;;;;;5069733;28;20024;-74
2021/05/28 05:02:15;;;;;;;14.52;6.93;;;9.00;99.90;;;;;;5076909;28;20494;-74
2021/05/28 05:04:40;;;;;;;14.98;7.55;;;9.10;99.90;;;;;;5071445;28;20020;-74
2021/05/28 05:07:06;;;;;;;17.63;6.88;;;9.10;99.90;;;;;;5076806;28;20054;-75
2021/05/28 05:09:32;;;;;;;14.25;6.85;;;9.20;99.90;;;;;;5077573;28;20068;-75
2021/05/28 05:11:57;;;;;;;12.30;7.07;;;9.20;99.90;;;;;;5061783;28;20115;-73
2021/05/28 05:14:23;;;;;;;11.73;7.85;;;9.30;99.90;;;;;;5078852;28;20416;-73
2021/05/28 05:16:49;;;;;;;14.43;7.35;;;9.40;99.90;;;;;;5077756;28;20472;-73
2021/05/28 05:19:14;;;;;;;10.30;7.13;;;9.40;99.90;;;;;;5076481;28;20115;-73
2021/05/28 05:21:41;;;;;;;14.25;7.97;;;9.50;99.90;;;;;;5079392;28;20087;-74
2021/05/28 05:24:10;;;;;;;15.48;7.57;;;9.60;99.90;;;;;;5073820;28;20131;-74
2021/05/28 05:26:37;;;;;;;14.35;7.03;;;10.10;99.90;;;;;;5074074;28;20051;-74
2021/05/28 05:29:03;;;;;;;15.35;7.30;;;10.40;99.90;;;;;;5074179;28;20060;-74
2021/05/28 05:31:29;;;;;;;12.77;6.95;;;10.50;99.90;;;;;;5074851;28;20350;-74
2021/05/28 05:33:55;;;;;;;17.23;6.60;;;10.80;99.90;;;;;;5073566;28;20028;-74
2021/05/28 05:36:21;;;;;;;13.82;6.32;;;11.00;99.90;;;;;;5072515;28;20047;-74
2021/05/28 05:38:47;;;;;;;16.77;6.63;;;11.20;99.90;;;;;;5076043;28;20036;-74
2021/05/28 05:41:12;;;;;;;14.35;6.05;;;11.20;99.90;;;;;;5075271;28;20104;-74
2021/05/28 05:43:38;;;;;;;13.07;5.15;;;11.30;99.90;;;;;;5075196;28;20025;-74
2021/05/28 05:46:04;;;;;;;15.65;5.15;;;11.40;99.90;;;;;;5075508;28;20484;-74
2021/05/28 05:48:29;;;;;;;13.35;5.13;;;11.40;99.90;;;;;;5075610;28;20029;-74
2021/05/28 05:50:56;;;;;;;18.50;5.07;;;11.50;99.90;;;;;;5075526;28;20024;-74
2021/05/28 05:53:23;;;;;;;12.35;4.47;;;11.70;99.90;;;;;;5075004;28;20071;-74
2021/05/28 05:55:49;;;;;;;11.82;4.15;;;11.80;99.90;;;;;;5074207;28;20032;-74
2021/05/28 05:58:15;;;;;;;15.65;6.05;;;12.00;99.90;;;;;;5073711;28;20020;-73
2021/05/28 06:00:40;;;;;;;13.80;5.03;;;12.10;99.90;;;;;;5071568;28;20472;-75
2021/05/28 06:03:06;;;;;;;12.27;4.88;;;12.40;99.90;;;;;;5074820;28;20048;-74
2021/05/28 06:05:32;;;;;;;5.95;4.22;;;12.90;99.90;;;;;;5073759;28;20063;-73
2021/05/28 06:07:58;;;;;;;14.48;4.47;;;13.80;99.90;;;;;;5072905;28;20020;-74
2021/05/28 06:10:24;;;;;;;7.63;3.35;;;14.60;99.90;;;;;;5066450;28;20035;-74
2021/05/28 06:12:49;;;;;;;9.00;3.85;;;15.20;99.90;;;;;;5071725;28;20477;-74
2021/05/28 06:15:15;;;;;;;9.18;4.32;;;15.00;99.90;;;;;;5056766;28;20048;-74
2021/05/28 06:17:41;;;;;;;7.22;4.30;;;14.70;99.90;;;;;;5074704;28;20043;-74
2021/05/28 06:20:07;;;;;;;8.63;3.90;;;14.60;99.90;;;;;;5068518;28;20028;-74
2021/05/28 06:22:33;;;;;;;11.20;3.75;;;14.90;99.90;;;;;;5071517;28;20056;-75
2021/05/28 06:24:58;;;;;;;8.57;3.70;;;15.60;99.90;;;;;;5073228;28;20052;-74
2021/05/28 06:27:24;;;;;;;17.60;4.57;;;16.90;99.90;;;;;;5069779;28;20029;-75
2021/05/28 06:29:50;;;;;;;8.75;2.90;;;18.70;99.90;;;;;;5065292;28;20131;-74
2021/05/28 06:32:16;;;;;;;9.40;3.70;;;20.50;99.90;;;;;;5074603;28;20063;-75
2021/05/28 06:34:41;;;;;;;8.43;2.83;;;21.90;99.90;;;;;;5071520;28;20016;-74
2021/05/28 06:37:07;;;;;;;5.15;3.20;;;21.90;99.90;;;;;;5071308;28;20020;-73
2021/05/28 06:39:34;;;;;;;7.38;3.17;;;22.00;99.90;;;;;;5075994;28;20031;-75
2021/05/28 06:42:00;;;;;;;9.82;3.38;;;21.30;99.90;;;;;;5072514;28;20476;-75
2021/05/28 06:44:25;;;;;;;8.27;3.05;;;20.10;99.90;;;;;;5067544;28;20025;-75
2021/05/28 06:46:54;;;;;;;8.70;3.50;;;19.50;99.90;;;;;;5074097;28;20070;-75
2021/05/28 06:49:20;;;;;;;6.93;3.42;;;19.00;99.90;;;;;;5074154;28;20047;-74
2021/05/28 06:51:47;;;;;;;7.45;3.35;;;18.10;99.90;;;;;;5072127;28;20027;-75
2021/05/28 06:54:13;;;;;;;8.60;3.53;;;17.30;99.90;;;;;;5073674;28;20024;-74
2021/05/28 06:56:39;;;;;;;10.68;3.80;;;16.40;99.90;;;;;;5073773;28;20099;-74
2021/05/28 06:59:07;;;;;;;7.13;4.10;;;15.80;99.90;;;;;;5070183;28;20028;-74
2021/05/28 07:01:32;;;;;;;11.48;3.70;;;15.60;99.90;;;;;;5073364;28;20469;-74
2021/05/28 07:04:02;;;;;;;9.73;3.28;;;16.10;99.90;;;;;;5072343;28;20036;-74
2021/05/28 07:06:28;;;;;;;5.65;3.40;;;16.70;99.90;;;;;;5074180;28;20115;-74
2021/05/28 07:08:54;;;;;;;6.15;3.00;;;17.60;99.90;;;;;;5074356;28;20510;-73
2021/05/28 07:11:22;;;;;;;5.95;3.10;;;18.70;99.90;;;;;;5071205;28;20025;-75
2021/05/28 07:13:48;;;;;;;;;;;19.20;99.90;;;;;;5074252;28;20024;-75
2021/05/28 07:16:14;;;;;;;4.47;3.33;;;19.70;99.90;;;;;;5079765;28;19963;-74
2021/05/28 07:18:40;;;;;;;5.57;3.60;;;20.40;99.90;;;;;;5089453;28;20048;-75
2021/05/28 07:21:05;;;;;;;5.88;3.08;;;20.50;99.90;;;;;;5091393;28;20028;-75
2021/05/28 07:23:31;;;;;;;4.60;2.90;;;20.50;99.90;;;;;;5094016;28;20008;-75
2021/05/28 07:25:59;;;;;;;6.10;2.92;;;20.30;99.90;;;;;;5092913;28;20143;-74
2021/05/28 07:28:25;;;;;;;;;;;20.10;99.90;;;;;;5094493;28;20012;-74
2021/05/28 07:30:51;;;;;;;12.07;4.03;;;19.10;99.90;;;;;;5096419;28;19912;-73
2021/05/28 07:33:17;;;;;;;6.72;2.88;;;18.40;99.90;;;;;;5093087;28;20033;-75
2021/05/28 07:35:42;;;;;;;7.20;2.90;;;18.10;99.90;;;;;;5098193;28;20036;-75
2021/05/28 07:38:08;;;;;;;6.15;3.70;;;17.80;99.90;;;;;;5097696;28;20033;-74
2021/05/28 07:40:34;;;;;;;10.40;4.03;;;17.10;99.90;;;;;;5095620;28;20115;-70
2021/05/28 07:43:01;;;;;;;9.15;3.63;;;16.70;99.90;;;;;;5079156;28;20029;-75
2021/05/28 07:45:27;;;;;;;10.40;3.42;;;16.40;99.90;;;;;;5058281;28;20033;-75
2021/05/28 07:47:53;;;;;;;7.40;2.95;;;16.40;99.90;;;;;;5072707;28;20385;-74
2021/05/28 07:50:19;;;;;;;6.95;2.80;;;16.70;99.90;;;;;;5072748;28;20048;-75
2021/05/28 07:52:44;;;;;;;10.70;3.30;;;16.80;99.90;;;;;;5072246;28;20074;-75
2021/05/28 07:55:11;;;;;;;4.28;3.00;;;17.10;99.90;;;;;;5074807;28;20067;-74
2021/05/28 07:57:36;;;;;;;6.47;2.88;;;17.20;99.90;;;;;;5073409;28;20064;-74
2021/05/28 08:00:05;;;;;;;7.72;2.90;;;17.40;99.90;;;;;;5075813;28;20122;-75
2021/05/28 08:02:30;;;;;;;6.53;3.15;;;17.00;99.90;;;;;;5073813;28;20026;-75
2021/05/28 08:04:56;;;;;;;5.00;2.60;;;16.60;99.90;;;;;;5074599;28;20431;-74
2021/05/28 08:07:21;;;;;;;8.55;2.80;;;16.40;99.90;;;;;;5072717;28;20430;-74
2021/05/28 08:09:49;;;;;;;9.05;3.08;;;16.50;99.90;;;;;;5073314;28;20082;-74
2021/05/28 08:12:15;;;;;;;3.58;2.70;;;16.80;99.90;;;;;;5072693;28;20037;-74
2021/05/28 08:14:41;;;;;;;6.40;3.33;;;16.80;99.90;;;;;;5065221;28;20107;-74
2021/05/28 08:17:06;;;;;;;5.15;3.08;;;17.10;99.90;;;;;;5071289;28;20131;-74
2021/05/28 08:19:32;;;;;;;4.93;2.50;;;17.20;99.90;;;;;;5071777;28;20040;-74
2021/05/28 08:21:58;;;;;;;4.97;2.28;;;17.30;99.90;;;;;;5073292;28;20029;-74
2021/05/28 08:24:24;;;;;;;5.10;2.55;;;17.70;99.90;;;;;;5073513;28;20056;-75
2021/05/28 08:26:50;;;;;;;3.55;2.30;;;18.20;99.90;;;;;;5072375;28;20051;-75
2021/05/28 08:29:15;;;;;;;7.82;3.13;;;18.60;99.90;;;;;;5073146;28;20033;-75
2021/05/28 08:31:41;;;;;;;6.05;2.22;;;19.20;99.90;;;;;;5072359;28;20060;-76
2021/05/28 08:34:07;;;;;;;4.00;1.50;;;19.30;99.90;;;;;;5072351;28;20131;-76
2021/05/28 08:36:32;;;;;;;5.03;1.90;;;19.70;99.90;;;;;;5073041;28;20021;-75
2021/05/28 08:38:58;;;;;;;7.18;2.08;;;20.40;99.90;;;;;;5072186;28;20103;-75
2021/05/28 08:41:25;;;;;;;8.50;2.05;;;20.90;99.90;;;;;;5071542;28;20063;-76
2021/05/28 08:43:50;;;;;;;3.73;2.00;;;20.90;99.90;;;;;;5069795;28;20021;-77
2021/05/28 08:46:16;;;;;;;2.78;2.00;;;21.10;99.60;;;;;;5072229;28;20032;-78
2021/05/28 08:48:42;;;;;;;2.75;2.35;;;21.20;99.70;;;;;;5070902;28;20388;-78
2021/05/28 08:51:08;;;;;;;2.75;1.42;;;21.40;99.00;;;;;;5071455;28;20032;-76
2021/05/28 08:53:33;;;;;;;2.67;1.70;;;21.50;99.90;;;;;;5072581;28;20024;-73
2021/05/28 08:55:59;;;;;;;4.55;2.00;;;21.40;99.20;;;;;;5073112;28;20020;-73
2021/05/28 08:58:26;;;;;;;4.18;1.90;;;21.40;99.10;;;;;;5073793;28;20020;-74
2021/05/28 09:00:52;;;;;;;3.08;1.85;;;21.10;99.70;;;;;;5064315;28;20032;-75
2021/05/28 09:03:29;;;;;;;2.63;1.60;;;21.50;99.30;;;;;;5064220;28;20037;-74
2021/05/28 09:05:59;;;;;;;2.88;1.38;;;21.50;98.90;;;;;;5071175;28;20032;-76
2021/05/28 09:08:25;;;;;;;3.63;1.50;;;21.90;97.50;;;;;;5073937;28;20472;-76
2021/05/28 09:10:54;;;;;;;5.60;2.73;;;22.20;98.20;;;;;;5074953;28;20035;-78
2021/05/28 09:13:26;;;;;;;7.13;1.70;;;22.40;96.50;;;;;;5075616;28;20031;-78
2021/05/28 09:16:27;;;;;;;2.25;1.45;;;22.10;97.30;;;;;;5075338;28;20036;-75
2021/05/28 09:18:57;;;;;;;3.20;1.60;;;21.60;98.10;;;;;;5073744;28;20044;-75
2021/05/28 09:21:35;;;;;;;1.73;1.63;;;20.90;97.80;;;;;;5071297;28;20482;-74
2021/05/28 09:24:24;;;;;;;4.35;1.60;;;19.80;98.60;;;;;;5075548;28;20025;-74
2021/05/28 09:26:50;;;;;;;3.95;1.70;;;19.10;99.50;;;;;;5071864;28;20404;-74
2021/05/28 09:29:16;;;;;;;4.97;1.98;;;18.90;99.90;;;;;;5075678;28;20037;-74
2021/05/28 09:31:42;;;;;;;3.60;1.73;;;19.30;99.50;;;;;;5074328;28;20025;-74
2021/05/28 09:34:08;;;;;;;4.13;1.80;;;19.20;99.50;;;;;;5075948;28;20477;-74
2021/05/28 09:36:40;;;;;;;2.88;2.13;;;18.90;99.90;;;;;;5074947;28;20105;-74
2021/05/28 09:39:08;;;;;;;5.45;2.10;;;19.00;99.90;;;;;;5074666;28;20024;-73
2021/05/28 09:41:39;;;;;;;4.65;1.90;;;19.10;99.90;;;;;;5075904;28;20177;-73
2021/05/28 09:44:07;;;;;;;4.03;2.53;;;19.30;99.90;;;;;;5074858;28;20119;-74
2021/05/28 09:46:32;;;;;;;;;;;19.50;99.90;;;;;;5076284;28;20028;-74
2021/05/28 09:49:08;;;;;;;2.50;1.75;;;19.60;99.90;;;;;;5075757;28;19935;-74
2021/05/28 09:51:34;;;;;;;4.75;1.95;;;20.10;99.90;;;;;;5055271;28;20025;-73
2021/05/28 09:54:20;;;;;;;6.30;2.40;;;20.40;99.90;;;;;;5056067;28;20035;-74
2021/05/28 09:56:46;;;;;;;5.18;3.05;;;20.60;99.60;;;;;;5061245;28;20036;-74
2021/05/28 09:59:13;;;;;;;6.85;2.95;;;20.60;99.50;;;;;;5073170;28;20024;-74
2021/05/28 10:02:02;;;;;;;3.95;2.78;;;20.10;99.90;;;;;;5055686;28;20037;-75
2021/05/28 10:04:29;;;;;;;3.92;2.72;;;19.70;99.90;;;;;;5067147;28;20021;-74
2021/05/28 10:06:55;;;;;;;;;;;19.30;99.90;;;;;;5056227;28;20162;-74
2021/05/28 10:09:21;;;;;;;3.25;2.40;;;19.10;99.90;;;;;;5066093;28;19916;-74
2021/05/28 10:11:47;;;;;;;8.15;2.75;;;18.70;99.90;;;;;;5063009;28;20111;-74
2021/05/28 10:14:12;;;;;;;5.35;3.00;;;18.60;99.90;;;;;;5060548;28;20385;-74
2021/05/28 10:16:38;;;;;;;5.00;2.25;;;19.00;99.90;;;;;;5068800;28;20040;-73
2021/05/28 10:19:05;;;;;;;7.65;2.80;;;19.30;99.90;;;;;;5075264;28;20028;-74
2021/05/28 10:21:31;;;;;;;4.13;2.53;;;19.70;99.90;;;;;;5075437;28;20040;-74
2021/05/28 10:23:59;;;;;;;8.35;2.55;;;20.50;99.90;;;;;;5074478;28;20032;-74
2021/05/28 10:26:27;;;;;;;7.10;2.63;;;21.30;99.10;;;;;;5074226;28;20421;-74
2021/05/28 10:28:53;;;;;;;2.63;2.38;;;21.40;99.20;;;;;;5076261;28;20507;-74
2021/05/28 10:31:19;;;;;;;4.55;2.80;;;21.20;98.80;;;;;;5074450;28;20029;-74
2021/05/28 10:33:52;;;;;;;3.33;2.30;;;21.20;99.80;;;;;;5070985;28;20125;-74
2021/05/28 10:36:43;;;;;;;1.90;1.77;;;21.40;99.90;;;;;;5055013;28;20029;-74
2021/05/28 10:39:10;;;;;;;2.72;2.08;;;22.00;99.40;;;;;;5073768;28;20024;-75
2021/05/28 10:41:39;;;;;;;5.85;2.55;;;22.10;99.00;;;;;;5075037;28;20489;-73
2021/05/28 10:44:10;;;;;;;3.85;1.80;;;21.60;99.40;;;;;;5073130;28;20028;-74
2021/05/28 10:46:50;;;;;;;4.82;2.20;;;21.50;99.90;;;;;;5068777;28;20082;-73
2021/05/28 10:49:15;;;;;;;2.80;2.45;;;21.40;99.60;;;;;;5054721;28;20031;-73
2021/05/28 10:51:41;;;;;;;7.28;2.50;;;20.90;99.90;;;;;;5072346;28;20107;-74
2021/05/28 10:54:07;;;;;;;7.10;2.92;;;20.30;99.60;;;;;;5075230;28;20079;-73
2021/05/28 10:56:35;;;;;;;3.33;2.42;;;20.10;99.90;;;;;;5074531;28;20380;-74
2021/05/28 10:59:07;;;;;;;5.60;2.50;;;19.80;99.90;;;;;;5073692;28;20123;-73
2021/05/28 11:04:05;;;;;;;11.35;3.10;;;19.30;99.90;;;;;;5075181;28;20045;-73
2021/05/28 11:06:32;;;;;;;5.80;2.92;;;18.90;99.90;;;;;;5074059;28;20028;-73
2021/05/28 11:09:06;;;;;;;6.00;2.78;;;18.30;99.90;;;;;;5073617;28;20365;-73
2021/05/28 11:11:38;;;;;;;10.80;3.15;;;18.10;99.90;;;;;;5075429;28;20031;-73
2021/05/28 11:14:07;;;;;;;3.97;2.55;;;17.60;99.90;;;;;;5075564;28;20040;-73
2021/05/28 11:16:55;;;;;;;5.60;2.55;;;17.40;99.90;;;;;;5087164;28;20025;-73
2021/05/28 11:19:22;;;;;;;4.25;2.67;;;17.50;99.90;;;;;;5076223;28;20029;-74
2021/05/28 11:22:01;;;;;;;4.43;2.55;;;17.50;99.90;;;;;;5078674;28;20515;-73
2021/05/28 11:24:46;;;;;;;4.13;2.60;;;17.30;99.90;;;;;;5090226;28;20037;-74
2021/05/28 11:27:34;;;;;;;6.50;2.95;;;17.00;99.90;;;;;;5084682;28;20020;-73
2021/05/28 11:30:03;;;;;;;4.35;2.55;;;16.90;99.90;;;;;;5090015;28;20056;-72
2021/05/28 11:32:44;;;;;;;24.40;3.50;;;16.80;99.90;;;;;;5079166;28;20043;-73
2021/05/28 11:35:30;;;;;;;6.65;2.65;;;16.70;99.90;;;;;;5095383;28;20135;-72
2021/05/28 11:38:00;;;;;;;12.48;2.60;;;16.90;99.90;;;;;;5077076;28;20033;-73
2021/05/28 11:40:34;;;;;;;5.10;2.90;;;17.00;99.90;;;;;;5075490;28;20025;-74
2021/05/28 11:43:08;;;;;;;4.70;2.90;;;17.00;99.90;;;;;;5093514;28;20021;-72
2021/05/28 11:45:36;;;;;;;3.25;2.40;;;17.00;99.90;;;;;;5081961;28;20024;-72
2021/05/28 11:48:02;;;;;;;;;;;17.10;99.90;;;;;;5088847;28;20059;-72
2021/05/28 11:50:41;;;;;;;3.15;2.28;;;17.40;99.90;;;;;;5094171;28;20335;-74
2021/05/28 11:53:11;;;;;;;3.97;2.60;;;17.60;99.90;;;;;;5093971;28;20028;-71
2021/05/28 11:55:47;;;;;;;6.13;2.97;;;17.80;99.90;;;;;;5080675;28;20033;-72
2021/05/28 11:58:15;;;;;;;5.10;1.90;;;18.20;99.90;;;;;;5079297;28;20040;-73
2021/05/28 12:00:41;;;;;;;3.45;2.47;;;18.20;99.90;;;;;;5077704;28;20025;-73
2021/05/28 12:03:08;;;;;;;2.38;2.03;;;18.20;99.90;;;;;;5078946;28;20076;-73
2021/05/28 12:05:38;;;;;;;9.82;3.00;;;18.00;99.90;;;;;;5078986;28;20082;-73
2021/05/28 12:08:10;;;;;;;3.80;2.25;;;17.90;99.90;;;;;;5074924;28;20024;-73
2021/05/28 12:10:47;;;;;;;3.40;2.17;;;17.80;99.90;;;;;;5076606;28;20396;-74
2021/05/28 12:13:14;;;;;;;5.53;2.25;;;17.60;99.90;;;;;;5074691;28;20027;-75
2021/05/28 12:15:45;;;;;;;3.85;2.15;;;17.90;99.90;;;;;;5075235;28;20022;-73
2021/05/28 12:18:24;;;;;;;1.92;1.67;;;18.20;99.90;;;;;;5074555;28;20086;-74
2021/05/28 12:21:09;;;;;;;5.07;2.35;;;18.50;99.90;;;;;;5072531;28;20044;-74
2021/05/28 12:23:37;;;;;;;5.15;2.30;;;18.90;99.90;;;;;;5072641;28;20461;-74
2021/05/28 12:26:04;;;;;;;5.72;2.58;;;19.20;99.90;;;;;;5073721;28;20021;-74
2021/05/28 12:28:34;;;;;;;6.15;2.10;;;19.40;99.90;;;;;;5074302;28;20401;-74
2021/05/28 12:31:12;;;;;;;3.63;2.03;;;19.50;99.90;;;;;;5073717;28;20017;-74
2021/05/28 12:34:02;;;;;;;5.45;2.40;;;19.30;99.90;;;;;;5077779;28;20043;-72
2021/05/28 12:36:39;;;;;;;5.07;2.35;;;18.90;99.90;;;;;;5078250;28;20104;-74
2021/05/28 12:39:06;;;;;;;8.07;2.70;;;18.70;99.90;;;;;;5077993;28;20038;-74
2021/05/28 12:41:33;;;;;;;7.30;2.20;;;18.30;99.90;;;;;;5077355;28;20111;-74
2021/05/28 12:44:00;;;;;;;7.00;2.92;;;18.10;99.90;;;;;;5077369;28;20081;-73
2021/05/28 12:46:27;;;;;;;6.87;2.30;;;17.90;99.90;;;;;;5077702;28;20043;-74
2021/05/28 12:48:55;;;;;;;5.60;2.38;;;17.80;99.90;;;;;;5077468;28;20308;-74
2021/05/28 12:51:29;;;;;;;7.65;2.78;;;17.80;99.90;;;;;;5076038;28;20039;-74
2021/05/28 12:53:56;;;;;;;5.88;2.42;;;17.80;99.90;;;;;;5055834;28;20021;-75